sensor_id;sensor_type;location;lat;lon;timestamp;pressure;altitude;pressure_sealevel;temperature;humidity
45247;BME280;31529;51.158;7.354;2023-08-12T00:00:09;98202.19;;;21.82;100.00
45247;BME280;31529;51.158;7.354;2023-08-12T00:00:47;98201.38;;;21.81;100.00
45247;BME280;31529;51.158;7.354;2023-08-12T00:01:18;98196.34;;;21.80;100.00
45247;BME280;31529;51.158;7.354;2023-08-12T00:01:52;98196.69;;;21.78;100.00
45247;BME280;31529;51.158;7.354;2023-08-12T00:02:22;98189.66;;;21.77;100.00
45247;BME280;31529;51.158;7.354;2023-08-12T00:02:54;98188.09;;;21.76;100.00
45247;BME280;31529;51.158;7.354;2023-08-12T00:03:25;98184.94;;;21.74;100.00
45247;BME280;31529;51.158;7.354;2023-08-12T00:03:56;98194.22;;;21.73;100.00
45247;BME280;31529;51.158;7.354;2023-08-12T00:04:27;98193.44;;;21.73;100.00
45247;BME280;31529;51.158;7.354;2023-08-12T00:04:58;98204.66;;;21.71;100.00
45247;BME280;31529;51.158;7.354;2023-08-12T00:05:29;98200.34;;;21.70;100.00
45247;BME280;31529;51.158;7.354;2023-08-12T00:06:00;98200.72;;;21.69;100.00
45247;BME280;31529;51.158;7.354;2023-08-12T00:06:32;98202.63;;;21.68;100.00
45247;BME280;31529;51.158;7.354;2023-08-12T00:07:04;98200.72;;;21.69;100.00
45247;BME280;31529;51.158;7.354;2023-08-12T00:07:35;98199.91;;;21.68;100.00
45247;BME280;31529;51.158;7.354;2023-08-12T00:08:07;98203.44;;;21.69;100.00
45247;BME280;31529;51.158;7.354;2023-08-12T00:08:37;98202.63;;;21.68;100.00
45247;BME280;31529;51.158;7.354;2023-08-12T00:09:09;98208.44;;;21.67;100.00
45247;BME280;31529;51.158;7.354;2023-08-12T00:09:45;98199.47;;;21.66;100.00
45247;BME280;31529;51.158;7.354;2023-08-12T00:10:16;98199.47;;;21.66;100.00
45247;BME280;31529;51.158;7.354;2023-08-12T00:10:47;98199.47;;;21.66;100.00
45247;BME280;31529;51.158;7.354;2023-08-12T00:11:18;98203.34;;;21.65;100.00
45247;BME280;31529;51.158;7.354;2023-08-12T00:11:49;98200.97;;;21.63;100.00
45247;BME280;31529;51.158;7.354;2023-08-12T00:12:21;98200.19;;;21.63;100.00
45247;BME280;31529;51.158;7.354;2023-08-12T00:12:52;98198.59;;;21.62;100.00
45247;BME280;31529;51.158;7.354;2023-08-12T00:13:23;98197.47;;;21.63;100.00
45247;BME280;31529;51.158;7.354;2023-08-12T00:13:54;98199.38;;;21.62;100.00
45247;BME280;31529;51.158;7.354;2023-08-12T00:14:25;98200.19;;;21.63;100.00
45247;BME280;31529;51.158;7.354;2023-08-12T00:14:56;98192.38;;;21.61;100.00
45247;BME280;31529;51.158;7.354;2023-08-12T00:15:27;98194.31;;;21.61;100.00
45247;BME280;31529;51.158;7.354;2023-08-12T00:15:58;98202.09;;;21.62;100.00
45247;BME280;31529;51.158;7.354;2023-08-12T00:16:29;98200.19;;;21.63;100.00
45247;BME280;31529;51.158;7.354;2023-08-12T00:17:01;98200.19;;;21.63;100.00
45247;BME280;31529;51.158;7.354;2023-08-12T00:17:33;98199.38;;;21.62;100.00
45247;BME280;31529;51.158;7.354;2023-08-12T00:18:06;98192.03;;;21.63;100.00
45247;BME280;31529;51.158;7.354;2023-08-12T00:18:37;98193.16;;;21.62;100.00
45247;BME280;31529;51.158;7.354;2023-08-12T00:19:08;98195.88;;;21.62;100.00
45247;BME280;31529;51.158;7.354;2023-08-12T00:19:40;98193.94;;;21.62;100.00
45247;BME280;31529;51.158;7.354;2023-08-12T00:20:11;98205.63;;;21.63;100.00
45247;BME280;31529;51.158;7.354;2023-08-12T00:20:44;98199.38;;;21.62;100.00
45247;BME280;31529;51.158;7.354;2023-08-12T00:21:15;98200.19;;;21.63;100.00
45247;BME280;31529;51.158;7.354;2023-08-12T00:21:46;98198.59;;;21.62;100.00
45247;BME280;31529;51.158;7.354;2023-08-12T00:22:17;98200.19;;;21.63;100.00
45247;BME280;31529;51.158;7.354;2023-08-12T00:22:49;98123.78;;;21.17;100.00
45247;BME280;31529;51.158;7.354;2023-08-12T00:23:20;98201.41;;;21.66;100.00
45247;BME280;31529;51.158;7.354;2023-08-12T00:23:51;98209.22;;;21.67;100.00
45247;BME280;31529;51.158;7.354;2023-08-12T00:24:22;98207.63;;;21.66;100.00
45247;BME280;31529;51.158;7.354;2023-08-12T00:24:54;98200.28;;;21.67;100.00
45247;BME280;31529;51.158;7.354;2023-08-12T00:25:25;98205.28;;;21.64;100.00
45247;BME280;31529;51.158;7.354;2023-08-12T00:25:57;98203.34;;;21.65;100.00
45247;BME280;31529;51.158;7.354;2023-08-12T00:26:29;98208.78;;;21.65;100.00
45247;BME280;31529;51.158;7.354;2023-08-12T00:27:01;98196.31;;;21.64;100.00
45247;BME280;31529;51.158;7.354;2023-08-12T00:27:32;98200.63;;;21.65;100.00
45247;BME280;31529;51.158;7.354;2023-08-12T00:28:03;98193.59;;;21.64;100.00
45247;BME280;31529;51.158;7.354;2023-08-12T00:28:34;98200.63;;;21.65;100.00
45247;BME280;31529;51.158;7.354;2023-08-12T00:29:07;98198.34;;;21.67;100.00
45247;BME280;31529;51.158;7.354;2023-08-12T00:29:38;98198.69;;;21.66;100.00
45247;BME280;31529;51.158;7.354;2023-08-12T00:30:09;98200.28;;;21.67;100.00
45247;BME280;31529;51.158;7.354;2023-08-12T00:30:41;98197.19;;;21.68;100.00
45247;BME280;31529;51.158;7.354;2023-08-12T00:31:12;98198.78;;;21.69;100.00
45247;BME280;31529;51.158;7.354;2023-08-12T00:31:43;98198.78;;;21.69;100.00
45247;BME280;31529;51.158;7.354;2023-08-12T00:32:14;98201.50;;;21.69;100.00
45247;BME280;31529;51.158;7.354;2023-08-12T00:32:45;98198.34;;;21.67;100.00
45247;BME280;31529;51.158;7.354;2023-08-12T00:33:16;98199.91;;;21.68;100.00
45247;BME280;31529;51.158;7.354;2023-08-12T00:33:48;98196.41;;;21.68;100.00
45247;BME280;31529;51.158;7.354;2023-08-12T00:34:20;98193.25;;;21.66;100.00
45247;BME280;31529;51.158;7.354;2023-08-12T00:34:51;98202.19;;;21.66;100.00
45247;BME280;31529;51.158;7.354;2023-08-12T00:35:22;98198.34;;;21.67;100.00
45247;BME280;31529;51.158;7.354;2023-08-12T00:35:53;98201.84;;;21.68;100.00
45247;BME280;31529;51.158;7.354;2023-08-12T00:36:25;98199.91;;;21.68;100.00
45247;BME280;31529;51.158;7.354;2023-08-12T00:36:56;98201.84;;;21.68;100.00
45247;BME280;31529;51.158;7.354;2023-08-12T00:37:27;98202.63;;;21.68;100.00
45247;BME280;31529;51.158;7.354;2023-08-12T00:37:58;98203.44;;;21.69;100.00
45247;BME280;31529;51.158;7.354;2023-08-12T00:38:29;98204.22;;;21.69;100.00
45247;BME280;31529;51.158;7.354;2023-08-12T00:39:00;98203.44;;;21.69;100.00
45247;BME280;31529;51.158;7.354;2023-08-12T00:39:31;98206.94;;;21.69;100.00
45247;BME280;31529;51.158;7.354;2023-08-12T00:40:02;98198.00;;;21.69;100.00
45247;BME280;31529;51.158;7.354;2023-08-12T00:40:37;98196.41;;;21.68;100.00
45247;BME280;31529;51.158;7.354;2023-08-12T00:41:08;98202.63;;;21.68;100.00
45247;BME280;31529;51.158;7.354;2023-08-12T00:41:39;98199.13;;;21.68;100.00
45247;BME280;31529;51.158;7.354;2023-08-12T00:42:10;98203.44;;;21.69;100.00
45247;BME280;31529;51.158;7.354;2023-08-12T00:42:41;98205.34;;;21.68;100.00
45247;BME280;31529;51.158;7.354;2023-08-12T00:43:12;98203.44;;;21.69;100.00
45247;BME280;31529;51.158;7.354;2023-08-12T00:43:43;98204.22;;;21.69;100.00
45247;BME280;31529;51.158;7.354;2023-08-12T00:44:14;98205.78;;;21.70;100.00
45247;BME280;31529;51.158;7.354;2023-08-12T00:44:46;98203.06;;;21.70;100.00
45247;BME280;31529;51.158;7.354;2023-08-12T00:45:17;98202.72;;;21.72;100.00
45247;BME280;31529;51.158;7.354;2023-08-12T00:45:48;98204.66;;;21.71;100.00
45247;BME280;31529;51.158;7.354;2023-08-12T00:46:20;98201.59;;;21.73;100.00
45247;BME280;31529;51.158;7.354;2023-08-12T00:46:51;98206.25;;;21.72;100.00
45247;BME280;31529;51.158;7.354;2023-08-12T00:47:23;98204.31;;;21.73;100.00
45247;BME280;31529;51.158;7.354;2023-08-12T00:47:54;98202.38;;;21.73;100.00
45247;BME280;31529;51.158;7.354;2023-08-12T00:48:25;98205.09;;;21.73;100.00
45247;BME280;31529;51.158;7.354;2023-08-12T00:48:56;98206.69;;;21.74;100.00
45247;BME280;31529;51.158;7.354;2023-08-12T00:49:27;98202.03;;;21.75;100.00
45247;BME280;31529;51.158;7.354;2023-08-12T00:50:00;98207.44;;;21.75;100.00
45247;BME280;31529;51.158;7.354;2023-08-12T00:50:31;98198.97;;;21.76;100.00
45247;BME280;31529;51.158;7.354;2023-08-12T00:51:03;98206.31;;;21.76;100.00
45247;BME280;31529;51.158;7.354;2023-08-12T00:51:34;98209.00;;;21.76;100.00
45247;BME280;31529;51.158;7.354;2023-08-12T00:52:06;98190.03;;;21.60;100.00
45247;BME280;31529;51.158;7.354;2023-08-12T00:52:37;98211.38;;;21.77;100.00
45247;BME280;31529;51.158;7.354;2023-08-12T00:53:09;98209.00;;;21.76;100.00
45247;BME280;31529;51.158;7.354;2023-08-12T00:53:42;98209.81;;;21.76;100.00
45247;BME280;31529;51.158;7.354;2023-08-12T00:54:14;98205.53;;;21.75;100.00
45247;BME280;31529;51.158;7.354;2023-08-12T00:54:48;98210.50;;;21.73;100.00
45247;BME280;31529;51.158;7.354;2023-08-12T00:55:19;98207.81;;;21.73;100.00
45247;BME280;31529;51.158;7.354;2023-08-12T00:55:51;98210.84;;;21.72;100.00
45247;BME280;31529;51.158;7.354;2023-08-12T00:56:22;98214.38;;;21.72;100.00
45247;BME280;31529;51.158;7.354;2023-08-12T00:56:53;98219.00;;;21.72;100.00
45247;BME280;31529;51.158;7.354;2023-08-12T00:57:24;98214.72;;;21.71;100.00
45247;BME280;31529;51.158;7.354;2023-08-12T00:57:55;98214.28;;;21.69;100.00
45247;BME280;31529;51.158;7.354;2023-08-12T00:58:26;98221.63;;;21.68;100.00
45247;BME280;31529;51.158;7.354;2023-08-12T00:58:58;98216.56;;;21.67;100.00
45247;BME280;31529;51.158;7.354;2023-08-12T00:59:31;98216.56;;;21.67;100.00
45247;BME280;31529;51.158;7.354;2023-08-12T01:00:03;98210.34;;;21.66;100.00
45247;BME280;31529;51.158;7.354;2023-08-12T01:00:36;98202.56;;;21.64;100.00
45247;BME280;31529;51.158;7.354;2023-08-12T01:01:07;98206.06;;;21.65;100.00
45247;BME280;31529;51.158;7.354;2023-08-12T01:01:39;98208.78;;;21.65;100.00
45247;BME280;31529;51.158;7.354;2023-08-12T01:02:14;98213.44;;;21.64;100.00
45247;BME280;31529;51.158;7.354;2023-08-12T01:02:45;98216.13;;;21.64;100.00
45247;BME280;31529;51.158;7.354;2023-08-12T01:03:18;98214.22;;;21.65;100.00
45247;BME280;31529;51.158;7.354;2023-08-12T01:03:50;98211.50;;;21.65;100.00
45247;BME280;31529;51.158;7.354;2023-08-12T01:04:22;98219.63;;;21.65;100.00
45247;BME280;31529;51.158;7.354;2023-08-12T01:04:55;98221.56;;;21.64;100.00
45247;BME280;31529;51.158;7.354;2023-08-12T01:05:26;98218.84;;;21.64;100.00
45247;BME280;31529;51.158;7.354;2023-08-12T01:05:57;98219.63;;;21.65;100.00
45247;BME280;31529;51.158;7.354;2023-08-12T01:06:29;98213.84;;;21.67;100.00
45247;BME280;31529;51.158;7.354;2023-08-12T01:07:02;98215.75;;;21.66;100.00
45247;BME280;31529;51.158;7.354;2023-08-12T01:07:34;98221.19;;;21.66;100.00
45247;BME280;31529;51.158;7.354;2023-08-12T01:08:05;98221.19;;;21.66;100.00
45247;BME280;31529;51.158;7.354;2023-08-12T01:08:36;98216.91;;;21.65;100.00
45247;BME280;31529;51.158;7.354;2023-08-12T01:09:07;98212.63;;;21.64;100.00
45247;BME280;31529;51.158;7.354;2023-08-12T01:09:38;98211.84;;;21.63;100.00
45247;BME280;31529;51.158;7.354;2023-08-12T01:10:09;98214.56;;;21.63;100.00
45247;BME280;31529;51.158;7.354;2023-08-12T01:10:46;98207.19;;;21.64;100.00
45247;BME280;31529;51.158;7.354;2023-08-12T01:11:28;98204.81;;;21.62;100.00
45247;BME280;31529;51.158;7.354;2023-08-12T01:12:12;98201.31;;;21.62;100.00
45247;BME280;31529;51.158;7.354;2023-08-12T01:15:11;98193.50;;;21.60;100.00
45247;BME280;31529;51.158;7.354;2023-08-12T01:15:47;98195.09;;;21.61;100.00
45247;BME280;31529;51.158;7.354;2023-08-12T01:16:25;98197.81;;;21.61;100.00
45247;BME280;31529;51.158;7.354;2023-08-12T01:17:00;98201.31;;;21.62;100.00
45247;BME280;31529;51.158;7.354;2023-08-12T01:17:36;98199.38;;;21.62;100.00
45247;BME280;31529;51.158;7.354;2023-08-12T01:18:09;98194.75;;;21.63;100.00
45247;BME280;31529;51.158;7.354;2023-08-12T01:18:42;98197.47;;;21.63;100.00
45247;BME280;31529;51.158;7.354;2023-08-12T01:19:33;98193.59;;;21.64;100.00
45247;BME280;31529;51.158;7.354;2023-08-12T01:20:06;98194.75;;;21.63;100.00
45247;BME280;31529;51.158;7.354;2023-08-12T01:20:45;98196.31;;;21.64;100.00
45247;BME280;31529;51.158;7.354;2023-08-12T01:21:18;98202.56;;;21.64;100.00
45247;BME280;31529;51.158;7.354;2023-08-12T01:21:52;98192.81;;;21.63;100.00
45247;BME280;31529;51.158;7.354;2023-08-12T01:22:24;98187.41;;;21.63;100.00
45247;BME280;31529;51.158;7.354;2023-08-12T01:23:19;98195.19;;;21.65;100.00
45247;BME280;31529;51.158;7.354;2023-08-12T01:23:52;98188.19;;;21.64;100.00
45247;BME280;31529;51.158;7.354;2023-08-12T01:24:24;98189.34;;;21.63;100.00
45247;BME280;31529;51.158;7.354;2023-08-12T01:24:56;98189.34;;;21.63;100.00
45247;BME280;31529;51.158;7.354;2023-08-12T01:25:27;98194.75;;;21.63;100.00
45247;BME280;31529;51.158;7.354;2023-08-12T01:25:58;98195.09;;;21.61;100.00
45247;BME280;31529;51.158;7.354;2023-08-12T01:26:29;98186.19;;;21.61;100.00
45247;BME280;31529;51.158;7.354;2023-08-12T01:27:00;98189.25;;;21.59;100.00
45247;BME280;31529;51.158;7.354;2023-08-12T01:27:32;98191.19;;;21.59;100.00
45247;BME280;31529;51.158;7.354;2023-08-12T01:28:05;98190.38;;;21.58;100.00
45247;BME280;31529;51.158;7.354;2023-08-12T01:28:37;98192.28;;;21.58;100.00
45247;BME280;31529;51.158;7.354;2023-08-12T01:29:09;98188.81;;;21.57;100.00
45247;BME280;31529;51.158;7.354;2023-08-12T01:29:41;98189.59;;;21.58;100.00
45247;BME280;31529;51.158;7.354;2023-08-12T01:30:14;98188.38;;;21.55;100.00
45247;BME280;31529;51.158;7.354;2023-08-12T01:30:51;98190.28;;;21.55;100.00
45247;BME280;31529;51.158;7.354;2023-08-12T01:31:37;98180.56;;;21.54;100.00
45247;BME280;31529;51.158;7.354;2023-08-12T01:33:05;98184.41;;;21.53;100.00
45247;BME280;31529;51.158;7.354;2023-08-12T01:34:20;98175.81;;;21.51;100.00
45247;BME280;31529;51.158;7.354;2023-08-12T01:35:16;98177.41;;;21.52;100.00
45247;BME280;31529;51.158;7.354;2023-08-12T01:35:53;98180.47;;;21.50;100.00
45247;BME280;31529;51.158;7.354;2023-08-12T01:36:29;98180.47;;;21.50;100.00
45247;BME280;31529;51.158;7.354;2023-08-12T01:37:05;98176.97;;;21.50;100.00
45247;BME280;31529;51.158;7.354;2023-08-12T01:37:41;98169.97;;;21.49;100.00
45247;BME280;31529;51.158;7.354;2023-08-12T01:38:13;98165.22;;;21.45;100.00
45247;BME280;31529;51.158;7.354;2023-08-12T01:38:46;98164.44;;;21.45;100.00
45247;BME280;31529;51.158;7.354;2023-08-12T01:39:22;98164.75;;;21.43;100.00
45247;BME280;31529;51.158;7.354;2023-08-12T01:39:54;98165.13;;;21.42;100.00
45247;BME280;31529;51.158;7.354;2023-08-12T01:40:29;98169.75;;;21.41;100.00
45247;BME280;31529;51.158;7.354;2023-08-12T01:41:02;98162.75;;;21.40;100.00
45247;BME280;31529;51.158;7.354;2023-08-12T01:41:34;98167.03;;;21.41;100.00
45247;BME280;31529;51.158;7.354;2023-08-12T01:42:06;98162.75;;;21.40;100.00
45247;BME280;31529;51.158;7.354;2023-08-12T01:42:38;98142.59;;;21.25;100.00
45247;BME280;31529;51.158;7.354;2023-08-12T01:43:10;98164.69;;;21.40;100.00
45247;BME280;31529;51.158;7.354;2023-08-12T01:43:42;98166.59;;;21.39;100.00
45247;BME280;31529;51.158;7.354;2023-08-12T01:44:14;98161.16;;;21.39;100.00
45247;BME280;31529;51.158;7.354;2023-08-12T01:44:45;98165.81;;;21.39;100.00
45247;BME280;31529;51.158;7.354;2023-08-12T01:45:17;98166.16;;;21.37;100.00
45247;BME280;31529;51.158;7.354;2023-08-12T01:45:49;98162.31;;;21.38;100.00
45247;BME280;31529;51.158;7.354;2023-08-12T01:46:21;98160.72;;;21.37;100.00
45247;BME280;31529;51.158;7.354;2023-08-12T01:46:55;98167.31;;;21.36;100.00
45247;BME280;31529;51.158;7.354;2023-08-12T01:47:26;98166.50;;;21.36;100.00
45247;BME280;31529;51.158;7.354;2023-08-12T01:47:57;98163.00;;;21.35;100.00
45247;BME280;31529;51.158;7.354;2023-08-12T01:48:29;98168.44;;;21.35;100.00
45247;BME280;31529;51.158;7.354;2023-08-12T01:49:00;98167.66;;;21.35;100.00
45247;BME280;31529;51.158;7.354;2023-08-12T01:49:31;98165.28;;;21.33;100.00
45247;BME280;31529;51.158;7.354;2023-08-12T01:50:02;98161.78;;;21.33;100.00
45247;BME280;31529;51.158;7.354;2023-08-12T01:50:33;98160.97;;;21.32;100.00
45247;BME280;31529;51.158;7.354;2023-08-12T01:51:05;98162.13;;;21.31;100.00
45247;BME280;31529;51.158;7.354;2023-08-12T01:51:36;98163.25;;;21.30;100.00
45247;BME280;31529;51.158;7.354;2023-08-12T01:52:07;98165.19;;;21.30;100.00
45247;BME280;31529;51.158;7.354;2023-08-12T01:52:38;98153.56;;;21.29;100.00
45247;BME280;31529;51.158;7.354;2023-08-12T01:53:10;98162.47;;;21.30;100.00
45247;BME280;31529;51.158;7.354;2023-08-12T01:53:41;98162.47;;;21.30;100.00
45247;BME280;31529;51.158;7.354;2023-08-12T01:54:12;98165.19;;;21.30;100.00
45247;BME280;31529;51.158;7.354;2023-08-12T01:54:43;98163.25;;;21.30;100.00
45247;BME280;31529;51.158;7.354;2023-08-12T01:55:14;98158.97;;;21.29;100.00
45247;BME280;31529;51.158;7.354;2023-08-12T01:55:45;98156.63;;;21.28;100.00
45247;BME280;31529;51.158;7.354;2023-08-12T01:56:16;98162.03;;;21.28;100.00
45247;BME280;31529;51.158;7.354;2023-08-12T01:56:47;98158.09;;;21.25;100.00
45247;BME280;31529;51.158;7.354;2023-08-12T01:57:19;98149.53;;;21.23;100.00
45247;BME280;31529;51.158;7.354;2023-08-12T01:57:50;98154.16;;;21.22;100.00
45247;BME280;31529;51.158;7.354;2023-08-12T01:58:21;98151.81;;;21.21;100.00
45247;BME280;31529;51.158;7.354;2023-08-12T01:58:52;98154.88;;;21.19;100.00
45247;BME280;31529;51.158;7.354;2023-08-12T01:59:23;98147.84;;;21.18;100.00
45247;BME280;31529;51.158;7.354;2023-08-12T01:59:54;98097.66;;;20.80;100.00
45247;BME280;31529;51.158;7.354;2023-08-12T02:00:25;98151.72;;;21.17;100.00
45247;BME280;31529;51.158;7.354;2023-08-12T02:00:56;98151.72;;;21.17;100.00
45247;BME280;31529;51.158;7.354;2023-08-12T02:01:27;98149.78;;;21.18;100.00
45247;BME280;31529;51.158;7.354;2023-08-12T02:01:58;98146.28;;;21.17;100.00
45247;BME280;31529;51.158;7.354;2023-08-12T02:02:31;98144.34;;;21.18;100.00
45247;BME280;31529;51.158;7.354;2023-08-12T02:03:02;98147.06;;;21.18;100.00
45247;BME280;31529;51.158;7.354;2023-08-12T02:03:35;98152.50;;;21.18;100.00
45247;BME280;31529;51.158;7.354;2023-08-12T02:04:06;98152.50;;;21.18;100.00
45247;BME280;31529;51.158;7.354;2023-08-12T02:04:37;98155.22;;;21.18;100.00
45247;BME280;31529;51.158;7.354;2023-08-12T02:05:08;98152.50;;;21.18;100.00
45247;BME280;31529;51.158;7.354;2023-08-12T02:05:39;98154.44;;;21.17;100.00
45247;BME280;31529;51.158;7.354;2023-08-12T02:06:11;98159.47;;;21.19;100.00
45247;BME280;31529;51.158;7.354;2023-08-12T02:06:43;98148.63;;;21.19;100.00
45247;BME280;31529;51.158;7.354;2023-08-12T02:07:14;98162.19;;;21.19;100.00
45247;BME280;31529;51.158;7.354;2023-08-12T02:07:45;98152.50;;;21.18;100.00
45247;BME280;31529;51.158;7.354;2023-08-12T02:08:16;98156.78;;;21.19;100.00
45247;BME280;31529;51.158;7.354;2023-08-12T02:08:47;98147.06;;;21.18;100.00
45247;BME280;31529;51.158;7.354;2023-08-12T02:09:18;98152.50;;;21.18;100.00
45247;BME280;31529;51.158;7.354;2023-08-12T02:09:49;98145.47;;;21.17;100.00
45247;BME280;31529;51.158;7.354;2023-08-12T02:10:20;98140.88;;;21.17;100.00
45247;BME280;31529;51.158;7.354;2023-08-12T02:10:51;98146.28;;;21.17;100.00
45247;BME280;31529;51.158;7.354;2023-08-12T02:11:22;98133.84;;;21.16;100.00
45247;BME280;31529;51.158;7.354;2023-08-12T02:11:54;98144.69;;;21.16;100.00
45247;BME280;31529;51.158;7.354;2023-08-12T02:12:25;98142.31;;;21.15;100.00
45247;BME280;31529;51.158;7.354;2023-08-12T02:12:56;98141.53;;;21.14;100.00
45247;BME280;31529;51.158;7.354;2023-08-12T02:13:27;98141.53;;;21.14;100.00
45247;BME280;31529;51.158;7.354;2023-08-12T02:13:58;98135.34;;;21.14;100.00
45247;BME280;31529;51.158;7.354;2023-08-12T02:14:29;98136.47;;;21.13;100.00
45247;BME280;31529;51.158;7.354;2023-08-12T02:15:00;98138.06;;;21.14;100.00
45247;BME280;31529;51.158;7.354;2023-08-12T02:15:31;98136.47;;;21.13;100.00
45247;BME280;31529;51.158;7.354;2023-08-12T02:16:03;98136.81;;;21.11;100.00
45247;BME280;31529;51.158;7.354;2023-08-12T02:16:34;98130.59;;;21.11;100.00
45247;BME280;31529;51.158;7.354;2023-08-12T02:17:05;98137.19;;;21.10;100.00
45247;BME280;31529;51.158;7.354;2023-08-12T02:17:36;98133.66;;;21.09;100.00
45247;BME280;31529;51.158;7.354;2023-08-12T02:18:07;98137.53;;;21.08;100.00
45247;BME280;31529;51.158;7.354;2023-08-12T02:18:38;98137.53;;;21.08;100.00
45247;BME280;31529;51.158;7.354;2023-08-12T02:19:10;98137.53;;;21.08;100.00
45247;BME280;31529;51.158;7.354;2023-08-12T02:19:41;98138.31;;;21.09;100.00
45247;BME280;31529;51.158;7.354;2023-08-12T02:20:14;98139.44;;;21.08;100.00
45247;BME280;31529;51.158;7.354;2023-08-12T02:20:46;98066.38;;;20.55;100.00
45247;BME280;31529;51.158;7.354;2023-08-12T02:21:18;98143.72;;;21.09;100.00
45247;BME280;31529;51.158;7.354;2023-08-12T02:21:49;98136.72;;;21.08;100.00
45247;BME280;31529;51.158;7.354;2023-08-12T02:22:22;98139.44;;;21.08;100.00
45247;BME280;31529;51.158;7.354;2023-08-12T02:22:53;98133.22;;;21.07;100.00
45247;BME280;31529;51.158;7.354;2023-08-12T02:23:25;98134.38;;;21.06;100.00
45247;BME280;31529;51.158;7.354;2023-08-12T02:23:56;98134.38;;;21.06;100.00
45247;BME280;31529;51.158;7.354;2023-08-12T02:24:27;98140.56;;;21.06;100.00
45247;BME280;31529;51.158;7.354;2023-08-12T02:24:58;98139.78;;;21.06;100.00
45247;BME280;31529;51.158;7.354;2023-08-12T02:25:30;98137.88;;;21.06;100.00
45247;BME280;31529;51.158;7.354;2023-08-12T02:26:01;98142.94;;;21.08;100.00
45247;BME280;31529;51.158;7.354;2023-08-12T02:26:33;98135.59;;;21.09;100.00
45247;BME280;31529;51.158;7.354;2023-08-12T02:27:05;98137.53;;;21.08;100.00
45247;BME280;31529;51.158;7.354;2023-08-12T02:27:36;98132.88;;;21.09;100.00
45247;BME280;31529;51.158;7.354;2023-08-12T02:28:07;98133.66;;;21.09;100.00
45247;BME280;31529;51.158;7.354;2023-08-12T02:28:38;98136.38;;;21.09;100.00
45247;BME280;31529;51.158;7.354;2023-08-12T02:29:09;98136.38;;;21.09;100.00
45247;BME280;31529;51.158;7.354;2023-08-12T02:29:40;98132.88;;;21.09;100.00
45247;BME280;31529;51.158;7.354;2023-08-12T02:30:11;98128.13;;;21.05;100.00
45247;BME280;31529;51.158;7.354;2023-08-12T02:30:43;98130.06;;;21.05;100.00
45247;BME280;31529;51.158;7.354;2023-08-12T02:31:15;98125.34;;;21.02;100.00
45247;BME280;31529;51.158;7.354;2023-08-12T02:31:46;98128.84;;;21.02;100.00
45247;BME280;31529;51.158;7.354;2023-08-12T02:32:17;98131.91;;;21.01;100.00
45247;BME280;31529;51.158;7.354;2023-08-12T02:32:48;98130.31;;;21.00;100.00
45247;BME280;31529;51.158;7.354;2023-08-12T02:33:20;98136.56;;;21.00;100.00
45247;BME280;31529;51.158;7.354;2023-08-12T02:33:51;98137.34;;;21.01;100.00
45247;BME280;31529;51.158;7.354;2023-08-12T02:34:22;98139.25;;;21.00;100.00
45247;BME280;31529;51.158;7.354;2023-08-12T02:34:53;98136.56;;;21.00;100.00
45247;BME280;31529;51.158;7.354;2023-08-12T02:35:24;98135.75;;;21.00;100.00
45247;BME280;31529;51.158;7.354;2023-08-12T02:35:55;98123.31;;;20.99;100.00
45247;BME280;31529;51.158;7.354;2023-08-12T02:36:26;98124.09;;;20.99;100.00
45247;BME280;31529;51.158;7.354;2023-08-12T02:36:58;98121.75;;;20.98;100.00
45247;BME280;31529;51.158;7.354;2023-08-12T02:37:29;98117.13;;;20.98;100.00
45247;BME280;31529;51.158;7.354;2023-08-12T02:38:00;98122.09;;;20.96;100.00
45247;BME280;31529;51.158;7.354;2023-08-12T02:38:31;97993.25;;;20.14;100.00
45247;BME280;31529;51.158;7.354;2023-08-12T02:39:02;98123.22;;;20.95;100.00
45247;BME280;31529;51.158;7.354;2023-08-12T02:39:33;98121.63;;;20.94;100.00
45247;BME280;31529;51.158;7.354;2023-08-12T02:40:05;98120.88;;;20.94;100.00
45247;BME280;31529;51.158;7.354;2023-08-12T02:40:36;98119.75;;;20.95;100.00
45247;BME280;31529;51.158;7.354;2023-08-12T02:41:07;98118.94;;;20.94;100.00
45247;BME280;31529;51.158;7.354;2023-08-12T02:41:38;98115.44;;;20.94;100.00
45247;BME280;31529;51.158;7.354;2023-08-12T02:42:10;98116.22;;;20.94;100.00
45247;BME280;31529;51.158;7.354;2023-08-12T02:42:41;98120.53;;;20.95;100.00
45247;BME280;31529;51.158;7.354;2023-08-12T02:43:12;98118.94;;;20.94;100.00
45247;BME280;31529;51.158;7.354;2023-08-12T02:43:43;98113.16;;;20.96;100.00
45247;BME280;31529;51.158;7.354;2023-08-12T02:44:14;98115.44;;;20.94;100.00
45247;BME280;31529;51.158;7.354;2023-08-12T02:44:45;98114.66;;;20.93;100.00
45247;BME280;31529;51.158;7.354;2023-08-12T02:45:16;98117.38;;;20.93;100.00
45247;BME280;31529;51.158;7.354;2023-08-12T02:45:47;98120.09;;;20.93;100.00
45247;BME280;31529;51.158;7.354;2023-08-12T02:46:18;98121.22;;;20.92;100.00
45247;BME280;31529;51.158;7.354;2023-08-12T02:46:49;98122.34;;;20.91;100.00
45247;BME280;31529;51.158;7.354;2023-08-12T02:47:20;98118.88;;;20.91;100.00
45247;BME280;31529;51.158;7.354;2023-08-12T02:47:51;98121.91;;;20.89;100.00
45247;BME280;31529;51.158;7.354;2023-08-12T02:48:23;98121.91;;;20.89;100.00
45247;BME280;31529;51.158;7.354;2023-08-12T02:48:54;98119.97;;;20.90;100.00
45247;BME280;31529;51.158;7.354;2023-08-12T02:49:25;98115.34;;;20.90;100.00
45247;BME280;31529;51.158;7.354;2023-08-12T02:49:56;98111.84;;;20.90;100.00
45247;BME280;31529;51.158;7.354;2023-08-12T02:50:27;98109.91;;;20.90;100.00
45247;BME280;31529;51.158;7.354;2023-08-12T02:50:58;98115.34;;;20.90;100.00
45247;BME280;31529;51.158;7.354;2023-08-12T02:51:29;98114.56;;;20.90;100.00